OAL892 SLPO-SBCG
Flight info
| Callsign | OAL892 |
|---|---|
| Flight time | 1h 39m |
| Altitude | 39000 |
| Route | ALC UW14 VIR UM411 EVLOL UM411 ATERU UZ42 IRIPI |
| Aircraft | B737/M-SDE2E3FGHIRWXY/LB1 |
Departure
| Time | 2026-05-08 19:08 |
|---|---|
| Airport | Capitan Nicolas Rojas Airport (SLPO) |
Arrival
| Time | 2026-05-08 20:48 |
|---|---|
| Airport | Campo Grande Airport (SBCG) |
| Time | Latitude | Longitude | Altitude | Speed | Heading |
|---|---|---|---|---|---|
| 2026-05-08 18:49 | -19.54294 | -65.72052 | 12424 ft | 0 kts | 231° |
| 2026-05-08 18:54 | -19.54294 | -65.72053 | 12427 ft | 0 kts | 238° |
| 2026-05-08 18:54 | -19.54291 | -65.72058 | 12425 ft | 1 kts | 294° |
| 2026-05-08 18:54 | -19.54280 | -65.72058 | 12424 ft | 5 kts | 4° |
| 2026-05-08 18:54 | -19.54228 | -65.72058 | 12422 ft | 0 kts | 339° |
| 2026-05-08 18:55 | -19.54225 | -65.72059 | 12422 ft | 2 kts | 339° |
| 2026-05-08 18:55 | -19.54206 | -65.72068 | 12420 ft | 5 kts | 333° |
| 2026-05-08 18:55 | -19.54198 | -65.72072 | 12420 ft | 0 kts | 329° |
| 2026-05-08 18:57 | -19.54193 | -65.72076 | 12420 ft | 3 kts | 327° |
| 2026-05-08 18:57 | -19.54176 | -65.72090 | 12421 ft | 7 kts | 318° |
| 2026-05-08 18:57 | -19.54179 | -65.72166 | 12426 ft | 9 kts | 242° |
| 2026-05-08 18:57 | -19.54218 | -65.72230 | 12429 ft | 11 kts | 236° |
| 2026-05-08 18:58 | -19.54258 | -65.72293 | 12433 ft | 10 kts | 236° |
| 2026-05-08 18:58 | -19.54295 | -65.72350 | 12436 ft | 9 kts | 234° |
| 2026-05-08 18:58 | -19.54332 | -65.72406 | 12439 ft | 10 kts | 236° |
| 2026-05-08 18:58 | -19.54375 | -65.72472 | 12444 ft | 12 kts | 234° |
| 2026-05-08 18:59 | -19.54424 | -65.72549 | 12449 ft | 14 kts | 236° |
| 2026-05-08 18:59 | -19.54481 | -65.72639 | 12454 ft | 15 kts | 237° |
| 2026-05-08 18:59 | -19.54538 | -65.72731 | 12460 ft | 15 kts | 236° |
| 2026-05-08 18:59 | -19.54594 | -65.72818 | 12467 ft | 14 kts | 236° |
| 2026-05-08 19:00 | -19.54648 | -65.72903 | 12471 ft | 14 kts | 236° |
| 2026-05-08 19:00 | -19.54704 | -65.72991 | 12476 ft | 15 kts | 236° |
| 2026-05-08 19:00 | -19.54759 | -65.73080 | 12482 ft | 15 kts | 236° |
| 2026-05-08 19:00 | -19.54817 | -65.73173 | 12487 ft | 16 kts | 234° |
| 2026-05-08 19:01 | -19.54882 | -65.73270 | 12492 ft | 16 kts | 236° |
| 2026-05-08 19:01 | -19.54940 | -65.73361 | 12501 ft | 13 kts | 236° |
| 2026-05-08 19:01 | -19.54982 | -65.73434 | 12506 ft | 11 kts | 248° |
| 2026-05-08 19:01 | -19.55008 | -65.73508 | 12508 ft | 11 kts | 231° |
| 2026-05-08 19:02 | -19.55044 | -65.73488 | 12507 ft | 4 kts | 90° |
| 2026-05-08 19:02 | -19.55029 | -65.73473 | 12506 ft | 4 kts | 21° |
| 2026-05-08 19:02 | -19.54982 | -65.73427 | 12504 ft | 14 kts | 55° |
| 2026-05-08 19:02 | -19.54915 | -65.73325 | 12499 ft | 19 kts | 55° |
| 2026-05-08 19:03 | -19.54837 | -65.73203 | 12489 ft | 21 kts | 56° |
| 2026-05-08 19:03 | -19.54753 | -65.73073 | 12482 ft | 22 kts | 56° |
| 2026-05-08 19:03 | -19.54664 | -65.72929 | 12473 ft | 22 kts | 57° |
| 2026-05-08 19:03 | -19.54585 | -65.72803 | 12466 ft | 21 kts | 56° |
| 2026-05-08 19:04 | -19.54503 | -65.72671 | 12457 ft | 22 kts | 56° |
| 2026-05-08 19:04 | -19.54413 | -65.72533 | 12448 ft | 24 kts | 55° |
| 2026-05-08 19:04 | -19.54319 | -65.72386 | 12438 ft | 24 kts | 56° |
| 2026-05-08 19:04 | -19.54229 | -65.72246 | 12431 ft | 21 kts | 56° |
| 2026-05-08 19:05 | -19.54144 | -65.72115 | 12423 ft | 23 kts | 55° |
| 2026-05-08 19:05 | -19.54055 | -65.71973 | 12416 ft | 24 kts | 56° |
| 2026-05-08 19:05 | -19.53958 | -65.71822 | 12406 ft | 26 kts | 56° |
| 2026-05-08 19:05 | -19.53868 | -65.71683 | 12419 ft | 20 kts | 56° |
| 2026-05-08 19:06 | -19.53788 | -65.71556 | 12400 ft | 21 kts | 57° |
| 2026-05-08 19:06 | -19.53713 | -65.71435 | 12395 ft | 16 kts | 57° |
| 2026-05-08 19:06 | -19.53676 | -65.71333 | 12397 ft | 13 kts | 73° |
| 2026-05-08 19:06 | -19.53631 | -65.71292 | 12394 ft | 7 kts | 325° |
| 2026-05-08 19:07 | -19.53636 | -65.71322 | 12385 ft | 2 kts | 231° |
| 2026-05-08 19:07 | -19.53659 | -65.71356 | 12386 ft | 20 kts | 234° |
| 2026-05-08 19:07 | -19.53842 | -65.71640 | 12416 ft | 72 kts | 235° |
| 2026-05-08 19:07 | -19.54212 | -65.72221 | 12430 ft | 117 kts | 236° |
| 2026-05-08 19:08 | -19.54745 | -65.73054 | 12481 ft | 154 kts | 236° |
| 2026-05-08 19:08 | -19.55401 | -65.74046 | 12740 ft | 169 kts | 236° |
| 2026-05-08 19:08 | -19.56025 | -65.75076 | 13509 ft | 163 kts | 234° |
| 2026-05-08 19:08 | -19.56550 | -65.76142 | 13971 ft | 171 kts | 253° |
| 2026-05-08 19:09 | -19.56681 | -65.77470 | 14052 ft | 193 kts | 276° |
| 2026-05-08 19:09 | -19.56138 | -65.78800 | 14148 ft | 207 kts | 307° |
| 2026-05-08 19:09 | -19.54894 | -65.79707 | 14117 ft | 230 kts | 340° |
| 2026-05-08 19:09 | -19.53270 | -65.79717 | 14305 ft | 242 kts | 13° |
| 2026-05-08 19:10 | -19.51778 | -65.78884 | 14479 ft | 247 kts | 40° |
| 2026-05-08 19:10 | -19.50817 | -65.77367 | 14508 ft | 264 kts | 70° |
| 2026-05-08 19:10 | -19.50291 | -65.75474 | 14495 ft | 268 kts | 71° |
| 2026-05-08 19:10 | -19.49523 | -65.73629 | 14493 ft | 283 kts | 61° |
| 2026-05-08 19:11 | -19.48790 | -65.71640 | 14548 ft | 299 kts | 83° |
| 2026-05-08 19:11 | -19.48769 | -65.69390 | 14640 ft | 315 kts | 94° |
| 2026-05-08 19:11 | -19.48860 | -65.66942 | 14742 ft | 341 kts | 91° |
| 2026-05-08 19:11 | -19.48715 | -65.64392 | 14923 ft | 362 kts | 83° |
| 2026-05-08 19:12 | -19.48232 | -65.61693 | 15055 ft | 382 kts | 76° |
| 2026-05-08 19:12 | -19.47435 | -65.58931 | 15216 ft | 399 kts | 70° |
| 2026-05-08 19:12 | -19.46410 | -65.56198 | 15940 ft | 397 kts | 66° |
| 2026-05-08 19:12 | -19.45266 | -65.53514 | 16535 ft | 402 kts | 64° |
| 2026-05-08 19:13 | -19.44040 | -65.50824 | 17031 ft | 408 kts | 63° |
| 2026-05-08 19:13 | -19.42775 | -65.48128 | 17596 ft | 411 kts | 63° |
| 2026-05-08 19:13 | -19.41484 | -65.45403 | 18151 ft | 415 kts | 63° |
| 2026-05-08 19:13 | -19.40204 | -65.42702 | 18753 ft | 416 kts | 63° |
| 2026-05-08 19:14 | -19.38901 | -65.39948 | 19293 ft | 420 kts | 63° |
| 2026-05-08 19:14 | -19.37590 | -65.37170 | 19795 ft | 424 kts | 63° |
| 2026-05-08 19:14 | -19.36273 | -65.34375 | 20341 ft | 426 kts | 63° |
| 2026-05-08 19:14 | -19.34943 | -65.31551 | 20824 ft | 430 kts | 63° |
| 2026-05-08 19:15 | -19.33606 | -65.28712 | 21378 ft | 432 kts | 63° |
| 2026-05-08 19:15 | -19.32262 | -65.25862 | 21898 ft | 434 kts | 63° |
| 2026-05-08 19:15 | -19.30909 | -65.22993 | 22415 ft | 437 kts | 63° |
| 2026-05-08 19:15 | -19.29548 | -65.20109 | 22890 ft | 440 kts | 63° |
| 2026-05-08 19:16 | -19.28173 | -65.17195 | 23338 ft | 442 kts | 63° |
| 2026-05-08 19:16 | -19.26705 | -65.14319 | 23782 ft | 445 kts | 57° |
| 2026-05-08 19:16 | -19.24843 | -65.11712 | 24160 ft | 446 kts | 48° |
| 2026-05-08 19:16 | -19.22760 | -65.09254 | 24535 ft | 448 kts | 46° |
| 2026-05-08 19:17 | -19.20657 | -65.06805 | 24889 ft | 450 kts | 47° |
| 2026-05-08 19:17 | -19.18567 | -65.04324 | 25235 ft | 453 kts | 47° |
| 2026-05-08 19:17 | -19.16484 | -65.01809 | 25545 ft | 456 kts | 47° |
| 2026-05-08 19:17 | -19.14424 | -64.99300 | 25837 ft | 459 kts | 47° |
| 2026-05-08 19:18 | -19.12302 | -64.96704 | 26141 ft | 462 kts | 47° |
| 2026-05-08 19:18 | -19.10221 | -64.94156 | 26453 ft | 464 kts | 47° |
| 2026-05-08 19:18 | -19.08106 | -64.91569 | 26766 ft | 466 kts | 47° |
| 2026-05-08 19:18 | -19.05970 | -64.88963 | 27028 ft | 469 kts | 47° |
| 2026-05-08 19:19 | -19.03827 | -64.86350 | 27320 ft | 472 kts | 46° |
| 2026-05-08 19:19 | -19.01672 | -64.83725 | 27639 ft | 474 kts | 46° |
| 2026-05-08 19:19 | -18.99500 | -64.81084 | 27951 ft | 477 kts | 46° |
| 2026-05-08 19:19 | -18.97318 | -64.78430 | 28243 ft | 480 kts | 46° |
| 2026-05-08 19:20 | -18.95120 | -64.75758 | 28524 ft | 483 kts | 46° |
| 2026-05-08 19:20 | -18.90687 | -64.70372 | 29028 ft | 488 kts | 46° |
| 2026-05-08 19:20 | -18.88454 | -64.67662 | 29351 ft | 490 kts | 46° |
| 2026-05-08 19:21 | -18.86209 | -64.64937 | 29642 ft | 492 kts | 46° |
| 2026-05-08 19:21 | -18.83957 | -64.62207 | 29892 ft | 495 kts | 45° |
| 2026-05-08 19:21 | -18.81689 | -64.59458 | 30129 ft | 497 kts | 45° |
| 2026-05-08 19:21 | -18.79417 | -64.56704 | 30348 ft | 498 kts | 45° |
| 2026-05-08 19:22 | -18.77139 | -64.53938 | 30568 ft | 499 kts | 45° |
| 2026-05-08 19:22 | -18.74871 | -64.51159 | 30874 ft | 499 kts | 46° |
| 2026-05-08 19:22 | -18.72642 | -64.48415 | 31222 ft | 497 kts | 46° |
| 2026-05-08 19:22 | -18.70390 | -64.45639 | 31621 ft | 496 kts | 45° |
| 2026-05-08 19:23 | -18.68146 | -64.42877 | 32003 ft | 494 kts | 45° |
| 2026-05-08 19:23 | -18.65911 | -64.40130 | 32375 ft | 493 kts | 45° |
| 2026-05-08 19:23 | -18.63678 | -64.37391 | 32717 ft | 492 kts | 44° |
| 2026-05-08 19:23 | -18.61442 | -64.34653 | 32996 ft | 493 kts | 45° |
| 2026-05-08 19:24 | -18.59195 | -64.31904 | 33191 ft | 496 kts | 45° |
| 2026-05-08 19:24 | -18.56942 | -64.29151 | 33458 ft | 496 kts | 45° |
| 2026-05-08 19:24 | -18.54686 | -64.26392 | 33863 ft | 494 kts | 45° |
| 2026-05-08 19:24 | -18.53203 | -64.24578 | 34131 ft | 492 kts | 44° |
| 2026-05-08 19:25 | -18.50224 | -64.20936 | 34602 ft | 489 kts | 44° |
| 2026-05-08 19:25 | -18.48007 | -64.18228 | 34872 ft | 489 kts | 44° |
| 2026-05-08 19:25 | -18.46536 | -64.16432 | 35052 ft | 488 kts | 44° |
| 2026-05-08 19:25 | -18.44317 | -64.13725 | 35360 ft | 487 kts | 44° |
| 2026-05-08 19:26 | -18.42107 | -64.11028 | 35740 ft | 484 kts | 44° |
| 2026-05-08 19:26 | -18.39909 | -64.08348 | 36053 ft | 483 kts | 43° |
| 2026-05-08 19:26 | -18.37714 | -64.05672 | 36318 ft | 483 kts | 43° |
| 2026-05-08 19:26 | -18.35518 | -64.02997 | 36561 ft | 483 kts | 43° |
| 2026-05-08 19:27 | -18.33312 | -64.00313 | 36752 ft | 485 kts | 43° |
| 2026-05-08 19:27 | -18.31106 | -63.97629 | 37011 ft | 484 kts | 43° |
| 2026-05-08 19:27 | -18.28908 | -63.94954 | 37327 ft | 482 kts | 43° |
| 2026-05-08 19:27 | -18.26717 | -63.92287 | 37655 ft | 480 kts | 43° |
| 2026-05-08 19:28 | -18.24540 | -63.89639 | 37966 ft | 478 kts | 42° |
| 2026-05-08 19:28 | -18.22367 | -63.86997 | 38221 ft | 477 kts | 42° |
| 2026-05-08 19:28 | -18.20190 | -63.84354 | 38428 ft | 477 kts | 42° |
| 2026-05-08 19:28 | -18.18020 | -63.81721 | 38642 ft | 477 kts | 42° |
| 2026-05-08 19:29 | -18.15852 | -63.79089 | 38848 ft | 476 kts | 42° |
| 2026-05-08 19:29 | -18.13682 | -63.76457 | 38989 ft | 477 kts | 42° |
| 2026-05-08 19:29 | -18.11497 | -63.73810 | 38983 ft | 480 kts | 42° |
| 2026-05-08 19:30 | -18.07141 | -63.68528 | 38997 ft | 475 kts | 41° |
| 2026-05-08 19:30 | -18.02822 | -63.63293 | 38998 ft | 473 kts | 41° |
| 2026-05-08 19:31 | -17.98517 | -63.58085 | 38995 ft | 470 kts | 41° |
| 2026-05-08 19:31 | -17.94230 | -63.52904 | 38990 ft | 470 kts | 41° |
| 2026-05-08 19:32 | -17.89965 | -63.47753 | 38979 ft | 470 kts | 41° |
| 2026-05-08 19:32 | -17.85649 | -63.42543 | 38974 ft | 469 kts | 41° |
| 2026-05-08 19:33 | -17.81403 | -63.37415 | 39017 ft | 467 kts | 42° |
| 2026-05-08 19:33 | -17.77126 | -63.32267 | 38935 ft | 468 kts | 42° |
| 2026-05-08 19:34 | -17.72850 | -63.27124 | 38963 ft | 467 kts | 42° |
| 2026-05-08 19:34 | -17.68586 | -63.21991 | 38942 ft | 466 kts | 42° |
| 2026-05-08 19:35 | -17.64689 | -63.16507 | 38923 ft | 483 kts | 63° |
| 2026-05-08 19:35 | -17.63856 | -63.13108 | 38950 ft | 494 kts | 80° |
| 2026-05-08 19:35 | -17.63939 | -63.09487 | 38935 ft | 502 kts | 99° |
| 2026-05-08 19:36 | -17.65813 | -63.02402 | 38939 ft | 504 kts | 105° |
| 2026-05-08 19:36 | -17.67896 | -62.95375 | 38942 ft | 504 kts | 105° |
| 2026-05-08 19:37 | -17.69910 | -62.88335 | 38956 ft | 503 kts | 104° |
| 2026-05-08 19:37 | -17.71853 | -62.81298 | 38952 ft | 502 kts | 104° |
| 2026-05-08 19:38 | -17.72816 | -62.77775 | 38969 ft | 501 kts | 104° |
| 2026-05-08 19:38 | -17.74326 | -62.72241 | 38987 ft | 501 kts | 104° |
| 2026-05-08 19:39 | -17.76242 | -62.65220 | 38974 ft | 501 kts | 104° |
| 2026-05-08 19:39 | -17.78149 | -62.58235 | 38978 ft | 501 kts | 104° |
| 2026-05-08 19:40 | -17.80066 | -62.51209 | 38973 ft | 501 kts | 104° |
| 2026-05-08 19:40 | -17.81983 | -62.44177 | 38979 ft | 501 kts | 104° |
| 2026-05-08 19:41 | -17.83899 | -62.37132 | 38977 ft | 502 kts | 104° |
| 2026-05-08 19:41 | -17.85813 | -62.30079 | 38977 ft | 502 kts | 104° |
| 2026-05-08 19:42 | -17.87722 | -62.23037 | 38983 ft | 502 kts | 104° |
| 2026-05-08 19:42 | -17.89628 | -62.15990 | 38991 ft | 501 kts | 104° |
| 2026-05-08 19:43 | -17.91530 | -62.08950 | 38992 ft | 501 kts | 104° |
| 2026-05-08 19:43 | -17.93429 | -62.01907 | 38973 ft | 502 kts | 104° |
| 2026-05-08 19:44 | -17.95330 | -61.94842 | 38948 ft | 502 kts | 104° |
| 2026-05-08 19:44 | -17.97217 | -61.87793 | 38974 ft | 501 kts | 104° |
| 2026-05-08 19:45 | -17.99113 | -61.80757 | 38958 ft | 500 kts | 104° |
| 2026-05-08 19:45 | -18.01023 | -61.73727 | 38980 ft | 499 kts | 104° |
| 2026-05-08 19:46 | -18.02934 | -61.66761 | 38985 ft | 499 kts | 104° |
| 2026-05-08 19:46 | -18.05796 | -61.56252 | 38987 ft | 498 kts | 104° |
| 2026-05-08 19:47 | -18.07696 | -61.49243 | 38984 ft | 498 kts | 104° |
| 2026-05-08 19:47 | -18.09594 | -61.42244 | 38990 ft | 498 kts | 104° |
| 2026-05-08 19:48 | -18.11546 | -61.35256 | 38985 ft | 498 kts | 105° |
| 2026-05-08 19:48 | -18.13521 | -61.28267 | 39008 ft | 499 kts | 105° |
| 2026-05-08 19:49 | -18.15480 | -61.21264 | 39042 ft | 499 kts | 104° |
| 2026-05-08 19:49 | -18.17438 | -61.14263 | 38989 ft | 502 kts | 104° |
| 2026-05-08 19:50 | -18.19409 | -61.07199 | 38989 ft | 504 kts | 104° |
| 2026-05-08 19:50 | -18.21377 | -61.00124 | 38988 ft | 505 kts | 105° |
| 2026-05-08 19:51 | -18.23346 | -60.93032 | 38976 ft | 505 kts | 105° |
| 2026-05-08 19:51 | -18.25316 | -60.85926 | 38980 ft | 506 kts | 105° |
| 2026-05-08 19:52 | -18.27285 | -60.78812 | 38964 ft | 506 kts | 105° |
| 2026-05-08 19:52 | -18.29239 | -60.71740 | 38968 ft | 505 kts | 105° |
| 2026-05-08 19:53 | -18.31209 | -60.64604 | 38955 ft | 503 kts | 105° |
| 2026-05-08 19:53 | -18.33141 | -60.57587 | 38984 ft | 501 kts | 104° |
| 2026-05-08 19:54 | -18.35078 | -60.50540 | 38942 ft | 501 kts | 104° |
| 2026-05-08 19:54 | -18.37012 | -60.43491 | 38958 ft | 500 kts | 105° |
| 2026-05-08 19:55 | -18.38946 | -60.36448 | 38950 ft | 499 kts | 105° |
| 2026-05-08 19:55 | -18.40855 | -60.29480 | 38960 ft | 498 kts | 105° |
| 2026-05-08 19:56 | -18.42771 | -60.22472 | 38971 ft | 498 kts | 105° |
| 2026-05-08 19:56 | -18.44684 | -60.15464 | 38954 ft | 498 kts | 105° |
| 2026-05-08 19:57 | -18.46592 | -60.08461 | 38959 ft | 497 kts | 105° |
| 2026-05-08 19:57 | -18.48497 | -60.01458 | 38955 ft | 497 kts | 105° |
| 2026-05-08 19:58 | -18.50396 | -59.94468 | 38994 ft | 496 kts | 105° |
| 2026-05-08 19:58 | -18.52295 | -59.87468 | 39001 ft | 497 kts | 104° |
| 2026-05-08 19:59 | -18.54192 | -59.80459 | 39011 ft | 498 kts | 104° |
| 2026-05-08 19:59 | -18.56092 | -59.73433 | 39008 ft | 499 kts | 104° |
| 2026-05-08 20:00 | -18.57994 | -59.66387 | 38980 ft | 500 kts | 104° |
| 2026-05-08 20:00 | -18.59885 | -59.59369 | 38967 ft | 501 kts | 104° |
| 2026-05-08 20:01 | -18.61784 | -59.52312 | 38954 ft | 500 kts | 105° |
| 2026-05-08 20:01 | -18.64095 | -59.45444 | 39002 ft | 498 kts | 125° |
| 2026-05-08 20:02 | -18.66574 | -59.42892 | 37082 ft | 508 kts | 156° |
| 2026-05-08 20:02 | -18.70003 | -59.42235 | 32084 ft | 539 kts | 203° |
| 2026-05-08 20:02 | -18.72924 | -59.44119 | 33603 ft | 453 kts | 224° |
| 2026-05-08 20:02 | -18.75372 | -59.46157 | 34288 ft | 442 kts | 232° |
| 2026-05-08 20:03 | -18.77261 | -59.48599 | 34981 ft | 424 kts | 236° |
| 2026-05-08 20:03 | -18.79498 | -59.50642 | 35587 ft | 432 kts | 216° |
| 2026-05-08 20:03 | -18.82363 | -59.51728 | 36074 ft | 446 kts | 195° |
| 2026-05-08 20:03 | -18.85506 | -59.51705 | 36363 ft | 463 kts | 174° |
| 2026-05-08 20:04 | -18.88581 | -59.50531 | 36507 ft | 479 kts | 153° |
| 2026-05-08 20:04 | -18.91188 | -59.48293 | 36604 ft | 491 kts | 131° |
| 2026-05-08 20:04 | -18.92996 | -59.45231 | 36722 ft | 495 kts | 110° |
| 2026-05-08 20:04 | -18.93772 | -59.41709 | 36868 ft | 492 kts | 89° |
| 2026-05-08 20:05 | -18.93434 | -59.38165 | 37041 ft | 482 kts | 70° |
| 2026-05-08 20:05 | -18.92322 | -59.34857 | 37313 ft | 475 kts | 61° |
| 2026-05-08 20:05 | -18.90924 | -59.31697 | 37538 ft | 473 kts | 58° |
| 2026-05-08 20:05 | -18.89412 | -59.28614 | 37763 ft | 472 kts | 57° |
| 2026-05-08 20:06 | -18.87852 | -59.25562 | 37976 ft | 472 kts | 56° |
| 2026-05-08 20:06 | -18.86289 | -59.22562 | 38153 ft | 473 kts | 56° |
| 2026-05-08 20:06 | -18.84693 | -59.19521 | 38333 ft | 474 kts | 56° |
| 2026-05-08 20:06 | -18.83095 | -59.16487 | 38562 ft | 473 kts | 56° |
| 2026-05-08 20:07 | -18.81515 | -59.13441 | 38835 ft | 472 kts | 57° |
| 2026-05-08 20:07 | -18.80053 | -59.10335 | 38946 ft | 475 kts | 60° |
| 2026-05-08 20:07 | -18.77685 | -59.03740 | 38951 ft | 485 kts | 70° |
| 2026-05-08 20:08 | -18.76979 | -59.00243 | 38933 ft | 491 kts | 81° |
| 2026-05-08 20:08 | -18.76859 | -58.97803 | 38963 ft | 493 kts | 89° |
| 2026-05-08 20:08 | -18.77941 | -58.90678 | 38956 ft | 498 kts | 104° |
| 2026-05-08 20:09 | -18.79948 | -58.83676 | 38947 ft | 499 kts | 107° |
| 2026-05-08 20:09 | -18.81944 | -58.76658 | 38948 ft | 500 kts | 105° |
| 2026-05-08 20:10 | -18.83812 | -58.69585 | 38939 ft | 500 kts | 104° |
| 2026-05-08 20:10 | -18.85672 | -58.62494 | 38943 ft | 501 kts | 105° |
| 2026-05-08 20:11 | -18.87607 | -58.55413 | 38936 ft | 502 kts | 105° |
| 2026-05-08 20:11 | -18.89561 | -58.48345 | 38940 ft | 502 kts | 105° |
| 2026-05-08 20:12 | -18.91499 | -58.41263 | 38942 ft | 502 kts | 105° |
| 2026-05-08 20:12 | -18.93428 | -58.34167 | 38936 ft | 502 kts | 105° |
| 2026-05-08 20:13 | -18.95356 | -58.27084 | 38936 ft | 502 kts | 105° |
| 2026-05-08 20:13 | -18.97284 | -58.20054 | 38930 ft | 501 kts | 105° |
| 2026-05-08 20:14 | -18.99221 | -58.12975 | 38935 ft | 500 kts | 106° |
| 2026-05-08 20:14 | -19.01146 | -58.05910 | 38936 ft | 500 kts | 105° |
| 2026-05-08 20:15 | -19.03065 | -57.98846 | 38927 ft | 499 kts | 105° |
| 2026-05-08 20:15 | -19.04977 | -57.91793 | 38909 ft | 499 kts | 106° |
| 2026-05-08 20:16 | -19.06884 | -57.84758 | 38915 ft | 499 kts | 106° |
| 2026-05-08 20:16 | -19.08872 | -57.77720 | 38917 ft | 499 kts | 109° |
| 2026-05-08 20:17 | -19.11190 | -57.70805 | 38914 ft | 499 kts | 111° |
| 2026-05-08 20:17 | -19.13571 | -57.63897 | 38915 ft | 501 kts | 110° |
| 2026-05-08 20:18 | -19.15917 | -57.56949 | 38921 ft | 503 kts | 110° |
| 2026-05-08 20:18 | -19.18248 | -57.49942 | 38915 ft | 505 kts | 110° |
| 2026-05-08 20:19 | -19.20575 | -57.42922 | 38927 ft | 506 kts | 110° |
| 2026-05-08 20:19 | -19.22900 | -57.35905 | 38902 ft | 506 kts | 110° |
| 2026-05-08 20:20 | -19.25223 | -57.28888 | 38922 ft | 505 kts | 110° |
| 2026-05-08 20:20 | -19.27540 | -57.21879 | 38902 ft | 504 kts | 110° |
| 2026-05-08 20:21 | -19.29850 | -57.14879 | 38905 ft | 503 kts | 110° |
| 2026-05-08 20:21 | -19.32146 | -57.07903 | 38900 ft | 501 kts | 110° |
| 2026-05-08 20:22 | -19.34434 | -57.00951 | 38897 ft | 499 kts | 110° |
| 2026-05-08 20:22 | -19.37157 | -56.94210 | 38902 ft | 497 kts | 119° |
| 2026-05-08 20:23 | -19.40413 | -56.87754 | 38903 ft | 497 kts | 120° |
| 2026-05-08 20:23 | -19.43690 | -56.81304 | 38898 ft | 497 kts | 119° |
| 2026-05-08 20:24 | -19.46906 | -56.74821 | 38894 ft | 497 kts | 119° |
| 2026-05-08 20:24 | -19.50090 | -56.68318 | 38888 ft | 497 kts | 119° |
| 2026-05-08 20:25 | -19.53269 | -56.61804 | 38887 ft | 498 kts | 119° |
| 2026-05-08 20:25 | -19.54873 | -56.58518 | 38444 ft | 507 kts | 119° |
| 2026-05-08 20:25 | -19.56496 | -56.55195 | 37756 ft | 508 kts | 119° |
| 2026-05-08 20:26 | -19.58120 | -56.51867 | 37120 ft | 507 kts | 119° |
| 2026-05-08 20:26 | -19.59716 | -56.48594 | 36518 ft | 505 kts | 119° |
| 2026-05-08 20:26 | -19.62904 | -56.42049 | 36544 ft | 502 kts | 119° |
| 2026-05-08 20:27 | -19.64525 | -56.38725 | 35731 ft | 511 kts | 119° |
| 2026-05-08 20:27 | -19.66155 | -56.35379 | 35038 ft | 510 kts | 119° |
| 2026-05-08 20:27 | -19.67781 | -56.32036 | 34349 ft | 511 kts | 119° |
| 2026-05-08 20:27 | -19.69411 | -56.28683 | 33721 ft | 511 kts | 120° |
| 2026-05-08 20:28 | -19.71035 | -56.25337 | 33271 ft | 505 kts | 120° |
| 2026-05-08 20:28 | -19.72631 | -56.22046 | 32901 ft | 498 kts | 120° |
| 2026-05-08 20:28 | -19.74203 | -56.18803 | 32520 ft | 494 kts | 120° |
| 2026-05-08 20:28 | -19.75788 | -56.15538 | 32162 ft | 502 kts | 120° |
| 2026-05-08 20:29 | -19.77399 | -56.12219 | 31803 ft | 510 kts | 120° |
| 2026-05-08 20:29 | -19.79028 | -56.08861 | 31465 ft | 512 kts | 120° |
| 2026-05-08 20:29 | -19.80657 | -56.05496 | 31106 ft | 512 kts | 120° |
| 2026-05-08 20:29 | -19.82282 | -56.02136 | 30764 ft | 512 kts | 120° |
| 2026-05-08 20:30 | -19.83910 | -55.98768 | 30410 ft | 512 kts | 120° |
| 2026-05-08 20:30 | -19.85542 | -55.95390 | 29871 ft | 516 kts | 120° |
| 2026-05-08 20:30 | -19.87185 | -55.91988 | 29208 ft | 519 kts | 119° |
| 2026-05-08 20:30 | -19.88834 | -55.88570 | 28560 ft | 520 kts | 119° |
| 2026-05-08 20:31 | -19.90479 | -55.85158 | 27929 ft | 519 kts | 119° |
| 2026-05-08 20:31 | -19.92116 | -55.81758 | 27417 ft | 514 kts | 119° |
| 2026-05-08 20:31 | -19.93738 | -55.78387 | 26911 ft | 510 kts | 118° |
| 2026-05-08 20:31 | -19.95347 | -55.75040 | 26429 ft | 509 kts | 118° |
| 2026-05-08 20:32 | -19.96966 | -55.71669 | 25963 ft | 514 kts | 118° |
| 2026-05-08 20:32 | -19.98593 | -55.68283 | 25515 ft | 514 kts | 118° |
| 2026-05-08 20:32 | -20.00211 | -55.64917 | 25046 ft | 508 kts | 118° |
| 2026-05-08 20:32 | -20.01952 | -55.61683 | 24598 ft | 502 kts | 125° |
| 2026-05-08 20:33 | -20.04094 | -55.58786 | 24150 ft | 495 kts | 134° |
| 2026-05-08 20:33 | -20.06405 | -55.56094 | 23709 ft | 491 kts | 134° |
| 2026-05-08 20:33 | -20.08707 | -55.53420 | 23237 ft | 489 kts | 134° |
| 2026-05-08 20:33 | -20.10987 | -55.50751 | 22718 ft | 486 kts | 134° |
| 2026-05-08 20:34 | -20.13251 | -55.48077 | 22211 ft | 485 kts | 133° |
| 2026-05-08 20:34 | -20.15492 | -55.45408 | 21714 ft | 483 kts | 133° |
| 2026-05-08 20:34 | -20.19926 | -55.40094 | 20754 ft | 477 kts | 133° |
| 2026-05-08 20:35 | -20.22123 | -55.37460 | 20280 ft | 474 kts | 133° |
| 2026-05-08 20:35 | -20.24263 | -55.34813 | 19812 ft | 472 kts | 129° |
| 2026-05-08 20:35 | -20.26066 | -55.31903 | 19344 ft | 469 kts | 118° |
| 2026-05-08 20:35 | -20.27497 | -55.28796 | 18903 ft | 466 kts | 115° |
| 2026-05-08 20:36 | -20.28872 | -55.25685 | 18450 ft | 463 kts | 115° |
| 2026-05-08 20:36 | -20.30241 | -55.22597 | 17985 ft | 459 kts | 115° |
| 2026-05-08 20:36 | -20.31616 | -55.19536 | 17479 ft | 456 kts | 116° |
| 2026-05-08 20:36 | -20.32992 | -55.16515 | 16971 ft | 452 kts | 116° |
| 2026-05-08 20:37 | -20.34367 | -55.13516 | 16479 ft | 448 kts | 116° |
| 2026-05-08 20:37 | -20.35729 | -55.10550 | 15989 ft | 441 kts | 116° |
| 2026-05-08 20:37 | -20.37058 | -55.07654 | 15499 ft | 426 kts | 115° |
| 2026-05-08 20:37 | -20.38334 | -55.04872 | 15014 ft | 411 kts | 116° |
| 2026-05-08 20:38 | -20.39778 | -55.02314 | 14549 ft | 397 kts | 126° |
| 2026-05-08 20:38 | -20.41547 | -55.00127 | 14086 ft | 384 kts | 137° |
| 2026-05-08 20:38 | -20.43464 | -54.98198 | 13557 ft | 375 kts | 138° |
| 2026-05-08 20:38 | -20.45357 | -54.96311 | 12930 ft | 370 kts | 137° |
| 2026-05-08 20:39 | -20.47220 | -54.94440 | 12315 ft | 365 kts | 137° |
| 2026-05-08 20:39 | -20.49044 | -54.92588 | 11711 ft | 361 kts | 137° |
| 2026-05-08 20:39 | -20.50826 | -54.90769 | 11104 ft | 345 kts | 137° |
| 2026-05-08 20:39 | -20.52518 | -54.89037 | 10511 ft | 330 kts | 137° |
| 2026-05-08 20:40 | -20.54122 | -54.87352 | 9927 ft | 318 kts | 134° |
| 2026-05-08 20:40 | -20.55596 | -54.85644 | 9309 ft | 309 kts | 132° |
| 2026-05-08 20:40 | -20.57019 | -54.83963 | 8698 ft | 302 kts | 131° |
| 2026-05-08 20:40 | -20.58439 | -54.82338 | 8073 ft | 297 kts | 138° |
| 2026-05-08 20:41 | -20.60195 | -54.81242 | 7451 ft | 290 kts | 168° |
| 2026-05-08 20:41 | -20.62129 | -54.81089 | 6873 ft | 273 kts | 198° |
| 2026-05-08 20:41 | -20.63787 | -54.81841 | 6286 ft | 249 kts | 229° |
| 2026-05-08 20:41 | -20.64811 | -54.83192 | 5712 ft | 222 kts | 257° |
| 2026-05-08 20:42 | -20.64997 | -54.84694 | 5122 ft | 194 kts | 289° |
| 2026-05-08 20:42 | -20.64356 | -54.85857 | 4516 ft | 179 kts | 322° |
| 2026-05-08 20:42 | -20.63194 | -54.86255 | 3923 ft | 184 kts | 357° |
| 2026-05-08 20:42 | -20.62044 | -54.85679 | 3656 ft | 188 kts | 37° |
| 2026-05-08 20:43 | -20.61365 | -54.84508 | 3533 ft | 180 kts | 51° |
| 2026-05-08 20:43 | -20.60827 | -54.83373 | 3458 ft | 166 kts | 52° |
| 2026-05-08 20:43 | -20.60298 | -54.82285 | 3458 ft | 166 kts | 52° |
| 2026-05-08 20:43 | -20.59712 | -54.81144 | 3508 ft | 178 kts | 52° |
| 2026-05-08 20:44 | -20.59137 | -54.80023 | 3467 ft | 165 kts | 51° |
| 2026-05-08 20:44 | -20.58610 | -54.78966 | 3490 ft | 160 kts | 52° |
| 2026-05-08 20:44 | -20.57956 | -54.78042 | 3490 ft | 152 kts | 30° |
| 2026-05-08 20:44 | -20.57161 | -54.77275 | 3498 ft | 157 kts | 33° |
| 2026-05-08 20:45 | -20.56360 | -54.76476 | 3506 ft | 159 kts | 32° |
| 2026-05-08 20:45 | -20.55821 | -54.75948 | 3501 ft | 160 kts | 32° |
| 2026-05-08 20:45 | -20.54735 | -54.74894 | 3517 ft | 154 kts | 33° |
| 2026-05-08 20:45 | -20.53927 | -54.74111 | 3376 ft | 157 kts | 33° |
| 2026-05-08 20:46 | -20.53122 | -54.73330 | 3178 ft | 156 kts | 34° |
| 2026-05-08 20:46 | -20.52319 | -54.72551 | 2992 ft | 157 kts | 34° |
| 2026-05-08 20:46 | -20.51515 | -54.71771 | 2785 ft | 155 kts | 32° |
| 2026-05-08 20:46 | -20.50713 | -54.70996 | 2593 ft | 155 kts | 36° |
| 2026-05-08 20:47 | -20.49918 | -54.70225 | 2426 ft | 153 kts | 37° |
| 2026-05-08 20:47 | -20.49197 | -54.69514 | 2261 ft | 140 kts | 39° |
| 2026-05-08 20:47 | -20.48494 | -54.68856 | 1974 ft | 128 kts | 39° |
| 2026-05-08 20:47 | -20.47849 | -54.68223 | 1847 ft | 122 kts | 38° |
| 2026-05-08 20:48 | -20.47282 | -54.67682 | 1825 ft | 85 kts | 42° |
| 2026-05-08 20:48 | -20.46988 | -54.67394 | 1831 ft | 40 kts | 44° |
| 2026-05-08 20:48 | -20.46796 | -54.67201 | 1836 ft | 37 kts | 42° |
| 2026-05-08 20:48 | -20.46605 | -54.67020 | 1839 ft | 38 kts | 41° |
| 2026-05-08 20:49 | -20.46409 | -54.66831 | 1840 ft | 38 kts | 41° |
| 2026-05-08 20:49 | -20.46289 | -54.66714 | 1841 ft | 29 kts | 43° |
| 2026-05-08 20:49 | -20.46130 | -54.66600 | 1845 ft | 18 kts | 327° |
| 2026-05-08 20:49 | -20.46024 | -54.66649 | 1845 ft | 16 kts | 341° |
| 2026-05-08 20:50 | -20.45958 | -54.66674 | 1845 ft | 15 kts | 339° |
| 2026-05-08 20:50 | -20.45864 | -54.66714 | 1845 ft | 14 kts | 336° |
| 2026-05-08 20:50 | -20.45789 | -54.66773 | 1845 ft | 13 kts | 340° |
| 2026-05-08 20:50 | -20.45766 | -54.66779 | 1845 ft | 0 kts | 351° |